Aeroporto :
LOGIN :

Iscrizione | Disclaimer

   EN    FR    IT 

 










Sommario :    VFR   VFR Marginale   IFR   IFR Intensivo   IFR Molto Intensivo
Visibilità : 
Base nubi : 
>= 8 km
>= 3000ft
5 / 8 km
1000 / 3000 ft
1500m / 5 km
500 / 1000 ft
800 / 1500m
200 / 500 ft
< 800m
< 200 ft
Simboli :   Temporali  Nebbia  Neve Forte  Precipitazioni Forti  Vento > 20 kt
SIGMETs :   Varie  Temporali  Ghiacco  Turbolenza  Onda orograficha  Ceneri Vulcaniche






- Altitudine del aeroporto : 885 ft
- Codice IATA : BAS


LFSB - Bale-Mulhouse

ULTIMO METAR :
  • 260900Z 26016KT 220V280 9999 -RA BKN030 BKN040 10/04 Q1005 TEMPO 26018G30KT

METARs OBSOLETI :
  • 260830Z 25011KT 210V290 9999 -RA BKN030 BKN043 09/04 Q1005 TEMPO 26018G30KT
  • 260800Z 25015KT 200V280 9999 BKN026 BKN043 10/05 Q1005 TEMPO 26018G30KT
  • 260730Z 25012KT 210V280 9999 BKN028 BKN040 09/04 Q1005 TEMPO 26018G30KT
  • 260700Z 25015KT 230V290 9999 SCT026 BKN040 09/05 Q1005 TEMPO 26018G30KT
  • 260630Z 26011KT 240V300 9999 FEW020 BKN040 09/04 Q1005 TEMPO 26018G30KT

TAF TAF LFSB
Valido dal 26 a 06 ore il 27 a 06 ore UTC


260500Z 2606/2706 26015G25KT 9999 SCT020 BKN040
PROB40 2606/2615 25018G35KT
BECMG 2621/2623 24010KT -RA
BECMG 2704/2706 14006KT
Met : +33 3 89 90 31 11



MetMap, La meteo Aeronautica in un colpo d'occhio ! - Copyright ORBIFLY Dicembre 2007 - Disclaimer

ORBIFLY MET'MAP TEAM :

Programmazione e sviluppo : Alexandra Zaïnal
Concezione : Baudouin d'Aumeries
Aiuto per la programmazione : Marc-Olivier Méhu
Supporto tecnico e logistico : Manuel Goepfert
Aiuto per la traduzione : Arnaldo La Scala

Contatto : metmap@orbifly.com




FONTI E CREDITI :

   NOAA